createdAt,value
2018-02-01T00:00:43.626Z,67.38
2018-02-01T00:03:12.827Z,67.92
2018-02-01T00:05:41.206Z,67.09
2018-02-01T00:08:09.931Z,67.01
2018-02-01T00:10:38.320Z,65.45
2018-02-01T00:13:06.728Z,67.01
2018-02-01T00:15:35.115Z,66.27
2018-02-01T00:18:03.506Z,67.26
2018-02-01T00:20:32.313Z,65.48
2018-02-01T00:23:00.795Z,66.60
2018-02-01T00:25:29.200Z,67.26
2018-02-01T00:27:57.596Z,66.22
2018-02-01T00:30:26.017Z,66.26
2018-02-01T00:32:54.729Z,65.83
2018-02-01T00:35:23.133Z,67.32
2018-02-01T00:37:51.554Z,65.68
2018-02-01T00:40:20.083Z,67.11
2018-02-01T00:42:48.463Z,64.03
2018-02-01T00:45:17.080Z,65.19
2018-02-01T00:47:45.466Z,65.16
2018-02-01T00:50:13.868Z,64.57
2018-02-01T00:52:42.237Z,64.94
2018-02-01T00:55:10.643Z,62.98
2018-02-01T00:57:39.363Z,63.33
2018-02-01T01:00:07.765Z,63.29
2018-02-01T01:02:36.150Z,64.07
2018-02-01T01:05:04.614Z,65.04
2018-02-01T01:07:32.981Z,64.72
2018-02-01T01:10:01.366Z,64.48
2018-02-01T01:15:04.857Z,65.86
2018-02-01T01:17:33.419Z,65.06
2018-02-01T01:20:01.816Z,65.61
2018-02-01T01:22:30.200Z,66.80
2018-02-01T01:24:58.668Z,68.00
2018-02-01T01:27:27.189Z,67.49
2018-02-01T01:29:55.569Z,66.26
2018-02-01T01:32:23.962Z,65.76
2018-02-01T01:34:52.346Z,65.53
2018-02-01T01:37:20.762Z,65.20
2018-02-01T01:39:49.145Z,66.10
2018-02-01T01:42:17.519Z,66.83
2018-02-01T01:44:46.106Z,64.21
2018-02-01T01:47:14.484Z,65.43
2018-02-01T01:49:42.867Z,63.05
2018-02-01T01:52:11.257Z,64.20
2018-02-01T01:54:39.632Z,62.97
2018-02-01T01:57:08.057Z,61.01
2018-02-01T01:59:36.441Z,57.58
2018-02-01T02:02:04.884Z,57.63
2018-02-01T02:04:33.255Z,62.88
2018-02-01T02:07:01.652Z,61.53
2018-02-01T02:09:30.330Z,61.86
2018-02-01T02:11:58.698Z,62.65
2018-02-01T02:14:27.163Z,61.62
2018-02-01T02:16:55.539Z,63.17
2018-02-01T02:19:23.916Z,63.96
2018-02-01T02:21:52.449Z,62.58
2018-02-01T02:24:20.827Z,61.95
2018-02-01T02:26:49.207Z,63.00
2018-02-01T02:29:17.571Z,61.63
2018-02-01T02:31:46.034Z,61.95
2018-02-01T02:34:14.922Z,59.54
2018-02-01T02:36:43.364Z,60.63
2018-02-01T02:39:11.746Z,62.67
2018-02-01T02:41:40.134Z,61.76
2018-02-01T02:44:08.499Z,61.17
2018-02-01T02:46:36.879Z,63.13
2018-02-01T02:49:05.270Z,63.05
2018-02-01T02:51:33.959Z,64.84
2018-02-01T02:54:02.377Z,65.37
2018-02-01T02:56:30.756Z,65.42
2018-02-01T02:58:59.219Z,64.24
2018-02-01T03:01:27.603Z,64.33
2018-02-01T03:03:56.297Z,64.23
2018-02-01T03:06:24.654Z,66.61
2018-02-01T03:08:53.013Z,63.32
2018-02-01T03:11:21.394Z,63.71
2018-02-01T03:13:49.744Z,64.84
2018-02-01T03:16:18.115Z,66.77
2018-02-01T03:18:46.533Z,66.65
2018-02-01T03:21:15.205Z,65.25
2018-02-01T03:23:43.591Z,67.41
2018-02-01T03:26:11.956Z,67.93
2018-02-01T03:28:40.335Z,64.38
2018-02-01T03:31:08.720Z,65.65
2018-02-01T03:33:37.492Z,64.90
2018-02-01T03:36:05.876Z,66.63
2018-02-01T03:38:34.329Z,64.48
2018-02-01T03:41:02.710Z,67.82
2018-02-01T03:43:31.097Z,65.94
2018-02-01T03:45:59.776Z,67.88
2018-02-01T03:48:28.167Z,67.97
2018-02-01T03:50:56.547Z,68.63
2018-02-01T03:53:24.987Z,68.30
2018-02-01T03:55:53.354Z,69.14
2018-02-01T03:58:22.036Z,69.23
2018-02-01T04:00:50.731Z,68.19
2018-02-01T04:03:19.119Z,68.49
2018-02-01T04:05:47.493Z,67.71
2018-02-01T04:08:15.947Z,68.04
2018-02-01T04:10:44.320Z,69.11
2018-02-01T04:13:12.759Z,68.18
2018-02-01T04:15:41.137Z,68.75
2018-02-01T04:18:09.507Z,69.83
2018-02-01T04:20:37.866Z,68.86
2018-02-01T04:23:06.254Z,67.37
2018-02-01T04:25:35.004Z,66.80
2018-02-01T04:28:03.385Z,67.31
2018-02-01T04:30:31.752Z,67.63
2018-02-01T04:33:00.202Z,67.11
2018-02-01T04:35:28.586Z,69.21
2018-02-01T04:37:57.294Z,66.89
2018-02-01T04:40:25.675Z,66.85
2018-02-01T04:42:54.144Z,64.57
2018-02-01T04:45:22.557Z,65.77
2018-02-01T04:47:50.936Z,66.07
2018-02-01T04:50:19.609Z,67.71
2018-02-01T04:52:48.007Z,66.59
2018-02-01T04:55:16.386Z,66.37
2018-02-01T04:57:44.778Z,66.12
2018-02-01T05:00:13.162Z,65.75
2018-02-01T05:02:41.526Z,66.61
2018-02-01T05:05:10.546Z,65.68
2018-02-01T05:07:39.239Z,65.99
2018-02-01T05:10:07.626Z,66.00
2018-02-01T05:12:36.009Z,65.41
2018-02-01T05:15:04.386Z,64.73
2018-02-01T05:17:32.837Z,65.65
2018-02-01T05:20:01.525Z,64.68
2018-02-01T05:22:29.939Z,65.64
2018-02-01T05:24:58.312Z,65.13
2018-02-01T05:27:26.709Z,65.25
2018-02-01T05:29:55.071Z,65.27
2018-02-01T05:32:23.851Z,65.29
2018-02-01T05:34:52.208Z,64.46
2018-02-01T05:37:20.561Z,66.13
2018-02-01T05:39:48.940Z,65.58
2018-02-01T05:42:17.307Z,67.42
2018-02-01T05:44:45.982Z,67.11
2018-02-01T05:47:14.372Z,66.38
2018-02-01T05:49:42.731Z,65.68
2018-02-01T05:52:11.116Z,63.23
2018-02-01T05:54:39.485Z,67.03
2018-02-01T05:57:08.397Z,66.17
2018-02-01T05:59:36.773Z,65.26
2018-02-01T06:02:05.264Z,65.74
2018-02-01T06:04:33.637Z,64.92
2018-02-01T06:07:02.022Z,64.24
2018-02-01T06:09:30.715Z,64.78
2018-02-01T06:11:59.118Z,66.08
2018-02-01T06:14:27.577Z,65.74
2018-02-01T06:16:55.953Z,65.63
2018-02-01T06:19:24.333Z,68.86
2018-02-01T06:21:53.007Z,66.38
2018-02-01T06:24:21.372Z,66.90
2018-02-01T06:26:50.661Z,66.46
2018-02-01T06:29:19.124Z,65.92
2018-02-01T06:31:47.501Z,67.52
2018-02-01T06:34:16.087Z,67.18
2018-02-01T06:36:44.468Z,66.01
2018-02-01T06:39:12.855Z,66.54
2018-02-01T06:41:41.336Z,65.80
2018-02-01T06:44:09.723Z,65.21
2018-02-01T06:46:38.420Z,66.16
2018-02-01T06:49:06.806Z,66.38
2018-02-01T06:51:35.190Z,64.93
2018-02-01T06:54:08.650Z,64.15
2018-02-01T06:56:37.011Z,64.69
2018-02-01T06:59:05.483Z,65.44
2018-02-01T07:01:33.963Z,65.97
2018-02-01T07:04:02.358Z,65.05
2018-02-01T07:06:30.733Z,63.40
2018-02-01T07:08:59.103Z,64.45
2018-02-01T07:11:27.876Z,63.53
2018-02-01T07:13:56.273Z,63.23
2018-02-01T07:16:24.653Z,63.08
2018-02-01T07:18:53.063Z,63.05
2018-02-01T07:21:21.432Z,63.28
2018-02-01T07:23:50.179Z,63.29
2018-02-01T07:26:18.571Z,62.00
2018-02-01T07:28:46.981Z,63.62
2018-02-01T07:31:15.377Z,64.88
2018-02-01T07:33:43.748Z,66.47
2018-02-01T07:36:12.158Z,63.85
2018-02-01T07:38:40.540Z,66.16
2018-02-01T07:41:08.940Z,66.26
2018-02-01T07:43:37.317Z,63.80
2018-02-01T07:46:24.420Z,64.04
2018-02-01T07:48:56.167Z,63.52
2018-02-01T07:51:24.661Z,64.66
2018-02-01T07:53:53.046Z,64.56
2018-02-01T07:56:21.403Z,65.37
2018-02-01T07:58:49.770Z,65.27
2018-02-01T08:01:18.399Z,64.02
2018-02-01T08:03:48.161Z,63.48
2018-02-01T08:06:16.625Z,63.24
2018-02-01T08:08:45.027Z,64.27
2018-02-01T08:11:14.358Z,64.59
2018-02-01T08:13:42.787Z,63.70
2018-02-01T08:16:11.163Z,63.77
2018-02-01T08:18:39.571Z,61.30
2018-02-01T08:21:07.937Z,60.30
2018-02-01T08:23:36.320Z,60.07
2018-02-01T08:26:04.794Z,59.28
2018-02-01T08:28:33.190Z,60.67
2018-02-01T08:31:01.570Z,59.57
2018-02-01T08:33:29.956Z,61.83
2018-02-01T08:35:58.343Z,61.68
2018-02-01T08:38:26.968Z,59.62
2018-02-01T08:40:55.374Z,60.93
2018-02-01T08:43:23.770Z,59.23
2018-02-01T08:45:52.133Z,58.96
2018-02-01T08:48:20.509Z,58.27
2018-02-01T08:50:49.114Z,57.45
2018-02-01T08:53:17.493Z,58.30
2018-02-01T08:55:45.877Z,58.22
2018-02-01T08:58:14.285Z,58.71
2018-02-01T09:00:42.684Z,61.02
2018-02-01T09:03:11.370Z,58.54
2018-02-01T09:05:39.751Z,60.60
2018-02-01T09:08:08.150Z,58.67
2018-02-01T09:10:36.536Z,57.26
2018-02-01T09:13:04.928Z,57.20
2018-02-01T09:15:33.385Z,57.69
2018-02-01T09:18:01.827Z,54.79
2018-02-01T09:20:30.313Z,55.72
2018-02-01T09:22:58.743Z,57.70
2018-02-01T09:25:27.135Z,55.40
2018-02-01T09:27:55.909Z,53.88
2018-02-01T09:30:24.716Z,54.96
2018-02-01T09:32:53.183Z,54.49
2018-02-01T09:35:21.628Z,49.78
2018-02-01T09:37:50.015Z,50.85
2018-02-01T09:40:18.499Z,49.15
2018-02-01T09:42:46.877Z,51.41
2018-02-01T09:45:15.308Z,52.66
2018-02-01T09:47:43.720Z,50.80
2018-02-01T09:50:12.394Z,48.34
2018-02-01T09:52:40.817Z,46.35
2018-02-01T09:55:09.211Z,45.11
2018-02-01T09:57:37.794Z,44.21
2018-02-01T10:00:06.193Z,44.28
2018-02-01T10:02:34.578Z,45.60
2018-02-01T10:05:03.046Z,46.64
2018-02-01T10:07:31.423Z,44.51
2018-02-01T10:10:00.193Z,45.06
2018-02-01T10:12:28.658Z,47.33
2018-02-01T10:14:57.067Z,47.38
2018-02-01T10:17:25.454Z,44.76
2018-02-01T10:19:53.829Z,44.77
2018-02-01T10:22:22.508Z,44.36
2018-02-01T10:24:50.924Z,43.18
2018-02-01T10:27:19.291Z,46.97
2018-02-01T10:29:47.664Z,48.21
2018-02-01T10:32:16.106Z,47.94
2018-02-01T10:34:44.777Z,49.83
2018-02-01T10:37:13.157Z,50.61
2018-02-01T10:39:41.587Z,51.31
2018-02-01T10:42:10.010Z,48.82
2018-02-01T10:44:38.395Z,50.05
2018-02-01T10:47:07.105Z,48.53
2018-02-01T10:49:35.498Z,48.39
2018-02-01T10:52:03.886Z,46.48
2018-02-01T10:54:32.322Z,45.59
2018-02-01T10:57:00.698Z,47.95
2018-02-01T10:59:29.315Z,52.47
2018-02-01T11:01:57.716Z,53.81
2018-02-01T11:04:26.119Z,54.43
2018-02-01T11:06:54.535Z,56.10
2018-02-01T11:09:22.910Z,54.41
2018-02-01T11:11:51.342Z,54.61
2018-02-01T11:14:19.733Z,54.62
2018-02-01T11:16:48.144Z,56.67
2018-02-01T11:19:16.619Z,57.60
2018-02-01T11:21:45.015Z,57.79
2018-02-01T11:24:13.715Z,58.71
2018-02-01T11:26:42.095Z,56.16
2018-02-01T11:29:10.504Z,57.21
2018-02-01T11:31:38.890Z,58.02
2018-02-01T11:34:07.283Z,58.02
2018-02-01T11:36:35.819Z,58.67
2018-02-01T11:39:04.217Z,56.20
2018-02-01T11:41:32.644Z,58.49
2018-02-01T11:44:01.035Z,57.72
2018-02-01T11:46:29.442Z,57.22
2018-02-01T11:48:58.018Z,55.67
2018-02-01T11:51:26.407Z,55.98
2018-02-01T11:53:54.783Z,56.26
2018-02-01T11:56:23.177Z,58.01
2018-02-01T11:58:51.598Z,57.22
2018-02-01T12:01:20.102Z,53.84
2018-02-01T12:03:48.514Z,55.95
2018-02-01T12:06:16.915Z,58.35
2018-02-01T12:08:45.505Z,56.40
2018-02-01T12:11:13.956Z,56.27
2018-02-01T12:13:42.662Z,56.01
2018-02-01T12:16:11.051Z,56.14
2018-02-01T12:18:39.436Z,58.68
2018-02-01T12:21:07.830Z,56.28
2018-02-01T12:23:36.219Z,58.90
2018-02-01T12:26:04.839Z,59.50
2018-02-01T12:28:33.239Z,59.14
2018-02-01T12:31:01.629Z,59.31
2018-02-01T12:33:30.019Z,58.36
2018-02-01T12:35:58.425Z,61.18
2018-02-01T12:38:27.190Z,60.12
2018-02-01T12:40:55.565Z,58.52
2018-02-01T12:43:23.971Z,60.75
2018-02-01T12:45:52.354Z,61.31
2018-02-01T12:48:20.806Z,59.97
2018-02-01T12:50:49.320Z,56.76
2018-02-01T12:53:17.710Z,58.46
2018-02-01T12:55:46.093Z,57.62
2018-02-01T12:58:14.486Z,57.73
2018-02-01T13:00:42.884Z,55.38
2018-02-01T13:03:11.575Z,57.34
2018-02-01T13:05:39.957Z,58.02
2018-02-01T13:08:08.435Z,57.32
2018-02-01T13:10:36.834Z,58.27
2018-02-01T13:13:05.235Z,60.16
2018-02-01T13:15:33.634Z,58.27
2018-02-01T13:18:02.027Z,60.18
2018-02-01T13:20:30.761Z,59.07
2018-02-01T13:22:59.181Z,59.67
2018-02-01T13:25:27.585Z,59.05
2018-02-01T13:27:55.966Z,59.25
2018-02-01T13:30:24.361Z,58.44
2018-02-01T13:32:53.155Z,57.97
2018-02-01T13:35:21.526Z,58.31
2018-02-01T13:37:49.903Z,58.35
2018-02-01T13:40:18.290Z,58.70
2018-02-01T13:42:46.671Z,58.32
2018-02-01T13:45:15.092Z,56.04
2018-02-01T13:47:43.552Z,57.18
2018-02-01T13:50:12.294Z,57.40
2018-02-01T13:52:40.708Z,57.25
2018-02-01T13:55:09.103Z,56.31
2018-02-01T13:57:37.486Z,56.88
2018-02-01T14:00:05.879Z,58.93
2018-02-01T14:02:34.277Z,58.39
2018-02-01T14:05:02.667Z,57.28
2018-02-01T14:07:31.188Z,56.75
2018-02-01T14:09:59.583Z,56.68
2018-02-01T14:12:27.963Z,54.67
2018-02-01T14:14:56.367Z,57.17
2018-02-01T14:17:24.756Z,59.52
2018-02-01T14:19:53.546Z,58.93
2018-02-01T14:22:21.935Z,57.35
2018-02-01T14:24:50.315Z,57.28
2018-02-01T14:27:18.690Z,56.82
2018-02-01T14:29:47.113Z,56.91
2018-02-01T14:32:15.661Z,58.32
2018-02-01T14:34:44.053Z,59.76
2018-02-01T14:37:12.458Z,58.01
2018-02-01T14:39:40.836Z,58.25
2018-02-01T14:42:09.225Z,58.56
2018-02-01T14:44:37.851Z,57.47
2018-02-01T14:47:06.246Z,57.75
2018-02-01T14:49:34.673Z,56.52
2018-02-01T14:52:03.048Z,59.71
2018-02-01T14:54:31.458Z,57.93
2018-02-01T14:57:00.232Z,59.86
2018-02-01T14:59:28.713Z,61.14
2018-02-01T15:01:57.097Z,61.25
2018-02-01T15:04:25.531Z,60.93
2018-02-01T15:06:53.919Z,60.75
2018-02-01T15:09:22.706Z,60.44
2018-02-01T15:11:51.454Z,59.38
2018-02-01T15:14:20.027Z,58.90
2018-02-01T15:16:48.431Z,60.47
2018-02-01T15:19:16.835Z,60.87
2018-02-01T15:21:45.266Z,60.68
2018-02-01T15:24:13.688Z,60.83
2018-02-01T15:26:42.077Z,59.70
2018-02-01T15:29:10.453Z,59.40
2018-02-01T15:31:39.009Z,62.74
2018-02-01T15:34:07.742Z,60.90
2018-02-01T15:36:36.197Z,60.66
2018-02-01T15:39:04.587Z,58.48
2018-02-01T15:41:32.958Z,63.53
2018-02-01T15:44:01.370Z,64.49
2018-02-01T15:46:29.906Z,61.75
2018-02-01T15:48:58.379Z,62.21
2018-02-01T15:51:26.773Z,63.12
2018-02-01T15:53:55.203Z,64.80
2018-02-01T15:56:23.588Z,64.48
2018-02-01T15:58:52.308Z,64.77
2018-02-01T16:01:20.686Z,66.52
2018-02-01T16:03:49.073Z,63.96
2018-02-01T16:06:17.456Z,63.40
2018-02-01T16:08:46.168Z,63.17
2018-02-01T16:11:14.846Z,62.20
2018-02-01T16:13:43.245Z,61.00
2018-02-01T16:16:13.090Z,65.13
2018-02-01T16:18:41.496Z,66.94
2018-02-01T16:21:09.944Z,65.30
2018-02-01T16:23:39.839Z,65.64
2018-02-01T16:26:09.665Z,66.08
2018-02-01T16:28:39.731Z,64.38
2018-02-01T16:31:09.114Z,66.52
2018-02-01T16:33:37.654Z,65.17
2018-02-01T16:36:07.451Z,63.06
2018-02-01T16:38:35.985Z,64.30
2018-02-01T16:41:04.773Z,64.61
2018-02-01T16:43:33.516Z,64.48
2018-02-01T16:46:03.313Z,63.80
2018-02-01T16:48:32.460Z,66.35
2018-02-01T16:51:00.843Z,65.42
2018-02-01T16:53:29.618Z,68.02
2018-02-01T16:55:58.163Z,66.05
2018-02-01T16:58:26.554Z,65.65
2018-02-01T17:00:55.089Z,65.69
2018-02-01T17:03:23.773Z,67.97
2018-02-01T17:05:52.231Z,67.30
2018-02-01T17:08:21.612Z,69.92
2018-02-01T17:10:50.075Z,67.36
2018-02-01T17:13:18.790Z,70.00
2018-02-01T17:15:47.168Z,69.53
2018-02-01T17:18:15.543Z,65.26
2018-02-01T17:20:43.921Z,65.07
2018-02-01T17:23:12.613Z,68.21
2018-02-01T17:25:41.007Z,67.83
2018-02-01T17:28:09.390Z,64.85
2018-02-01T17:30:37.832Z,64.92
2018-02-01T17:33:06.223Z,65.80
2018-02-01T17:35:34.639Z,68.79
2018-02-01T17:38:03.026Z,68.64
2018-02-01T17:40:31.419Z,67.63
2018-02-01T17:42:59.804Z,67.14
2018-02-01T17:45:28.309Z,68.66
2018-02-01T17:47:56.687Z,66.13
2018-02-01T17:50:25.071Z,66.83
2018-02-01T17:52:53.683Z,66.10
2018-02-01T17:55:22.086Z,64.98
2018-02-01T17:57:50.474Z,63.58
2018-02-01T18:00:18.910Z,67.06
2018-02-01T18:02:47.292Z,68.61
2018-02-01T18:05:15.732Z,66.56
2018-02-01T18:07:44.118Z,67.37
2018-02-01T18:10:12.496Z,70.62
2018-02-01T18:12:40.875Z,69.39
2018-02-01T18:15:09.264Z,66.32
2018-02-01T18:17:38.022Z,66.71
2018-02-01T18:20:06.410Z,69.90
2018-02-01T18:22:34.784Z,80.86
2018-02-01T18:25:03.149Z,70.64
2018-02-01T18:27:31.546Z,67.87
2018-02-01T18:29:59.938Z,65.88
2018-02-01T18:32:28.331Z,68.36
2018-02-01T18:34:56.925Z,68.83
2018-02-01T18:37:25.382Z,66.60
2018-02-01T18:39:53.761Z,65.58
2018-02-01T18:42:22.187Z,66.47
2018-02-01T18:44:50.578Z,66.14
2018-02-01T18:47:19.290Z,66.19
2018-02-01T18:49:47.756Z,65.95
2018-02-01T18:52:16.143Z,62.90
2018-02-01T18:54:44.542Z,63.08
2018-02-01T18:57:13.022Z,63.79
2018-02-01T18:59:41.609Z,65.83
2018-02-01T19:02:09.991Z,65.30
2018-02-01T19:04:38.361Z,67.13
2018-02-01T19:07:06.754Z,66.78
2018-02-01T19:09:35.147Z,65.13
2018-02-01T19:12:03.569Z,68.44
2018-02-01T19:14:31.947Z,68.47
2018-02-01T19:17:00.423Z,66.53
2018-02-01T19:19:28.789Z,66.45
2018-02-01T19:21:57.263Z,68.55
2018-02-01T19:24:25.639Z,66.70
2018-02-01T19:26:54.021Z,67.00
2018-02-01T19:29:22.440Z,65.60
2018-02-01T19:31:50.835Z,66.16
2018-02-01T19:34:19.275Z,65.50
2018-02-01T19:36:47.673Z,65.39
2018-02-01T19:39:16.095Z,66.24
2018-02-01T19:41:44.470Z,65.93
2018-02-01T19:44:12.875Z,66.72
2018-02-01T19:46:41.319Z,66.30
2018-02-01T19:49:09.703Z,68.46
2018-02-01T19:51:38.100Z,65.85
2018-02-01T19:54:06.471Z,64.39
2018-02-01T19:56:34.867Z,64.24
2018-02-01T19:59:03.317Z,66.24
2018-02-01T20:01:31.711Z,65.82
2018-02-01T20:04:00.158Z,65.66
2018-02-01T20:06:28.570Z,68.80
2018-02-01T20:08:56.950Z,67.39
2018-02-01T20:11:25.452Z,66.56
2018-02-01T20:13:53.853Z,65.67
2018-02-01T20:16:22.300Z,65.51
2018-02-01T20:18:50.687Z,64.38
2018-02-01T20:21:19.094Z,63.78
2018-02-01T20:23:47.483Z,65.78
2018-02-01T20:26:15.871Z,63.38
2018-02-01T20:28:44.660Z,65.00
2018-02-01T20:31:13.042Z,64.69
2018-02-01T20:33:41.420Z,64.77
2018-02-01T20:36:09.913Z,67.52
2018-02-01T20:38:38.314Z,64.00
2018-02-01T20:41:06.755Z,61.79
2018-02-01T20:43:35.143Z,65.77
2018-02-01T20:46:03.530Z,64.86
2018-02-01T20:48:31.916Z,64.55
2018-02-01T20:51:00.293Z,66.74
2018-02-01T20:53:28.742Z,65.98
2018-02-01T20:55:57.522Z,65.37
2018-02-01T20:58:26.017Z,66.95
2018-02-01T21:00:54.438Z,65.73
2018-02-01T21:03:22.886Z,66.06
2018-02-01T21:05:51.440Z,64.62
2018-02-01T21:08:19.830Z,65.44
2018-02-01T21:10:48.326Z,67.02
2018-02-01T21:13:16.725Z,64.73
2018-02-01T21:15:45.549Z,65.43
2018-02-01T21:18:14.276Z,65.42
2018-02-01T21:20:42.670Z,65.94
2018-02-01T21:23:11.056Z,65.06
2018-02-01T21:25:39.505Z,65.32
2018-02-01T21:28:07.903Z,64.67
2018-02-01T21:30:36.362Z,66.06
2018-02-01T21:33:04.823Z,65.51
2018-02-01T21:35:33.231Z,66.29
2018-02-01T21:38:01.883Z,67.21
2018-02-01T21:40:30.267Z,65.91
2018-02-01T21:42:59.041Z,66.41
2018-02-01T21:45:27.434Z,65.36
2018-02-01T21:47:56.123Z,66.84
2018-02-01T21:50:24.522Z,67.29
2018-02-01T21:52:52.932Z,65.38
2018-02-01T21:55:21.356Z,65.05
2018-02-01T21:57:49.761Z,66.93
2018-02-01T22:00:18.180Z,65.42
2018-02-01T22:02:46.569Z,66.14
2018-02-01T22:05:16.512Z,66.67
2018-02-01T22:07:44.987Z,65.84
2018-02-01T22:10:13.383Z,66.18
2018-02-01T22:12:41.853Z,66.49
2018-02-01T22:15:10.318Z,66.85
2018-02-01T22:17:38.708Z,67.61
2018-02-01T22:20:07.462Z,66.24
2018-02-01T22:22:35.869Z,64.89
2018-02-01T22:25:04.250Z,65.47
2018-02-01T22:27:32.786Z,67.23
2018-02-01T22:30:01.177Z,67.27
2018-02-01T22:32:29.882Z,68.53
2018-02-01T22:34:58.322Z,67.50
2018-02-01T22:37:26.672Z,66.46
2018-02-01T22:39:55.108Z,66.43
2018-02-01T22:42:23.491Z,68.59
2018-02-01T22:44:52.201Z,68.94
2018-02-01T22:47:20.678Z,65.42
2018-02-01T22:49:49.082Z,67.42
2018-02-01T22:52:17.568Z,65.90
2018-02-01T22:54:45.931Z,65.92
2018-02-01T22:57:14.606Z,67.48
2018-02-01T22:59:43.008Z,68.30
2018-02-01T23:02:11.411Z,66.30
2018-02-01T23:04:39.801Z,64.71
2018-02-01T23:07:08.288Z,65.14
2018-02-01T23:09:36.715Z,64.72
2018-02-01T23:12:05.099Z,64.57
2018-02-01T23:14:33.494Z,67.42
2018-02-01T23:17:01.884Z,66.92
2018-02-01T23:19:30.282Z,66.40
2018-02-01T23:21:58.949Z,66.24
2018-02-01T23:24:27.333Z,64.60
2018-02-01T23:26:55.739Z,67.84
2018-02-01T23:29:24.110Z,65.83
2018-02-01T23:31:52.481Z,66.42
2018-02-01T23:34:21.155Z,66.03
2018-02-01T23:36:49.557Z,65.27
2018-02-01T23:39:17.942Z,67.94
2018-02-01T23:41:46.331Z,64.29
2018-02-01T23:44:18.404Z,66.41
2018-02-01T23:46:47.069Z,65.07
2018-02-01T23:49:15.484Z,66.80
2018-02-01T23:51:43.838Z,65.63
2018-02-01T23:54:12.235Z,67.46
2018-02-01T23:56:40.601Z,65.49
2018-02-01T23:59:09.306Z,67.38
